sensor_id;sensor_type;location;lat;lon;timestamp;pressure;altitude;pressure_sealevel;temperature;humidity
70916;BME280;58557;50.982;-3.222;2023-07-31T00:01:56;100149.38;;;18.81;80.78
70916;BME280;58557;50.982;-3.222;2023-07-31T00:04:22;100146.34;;;17.86;84.31
70916;BME280;58557;50.982;-3.222;2023-07-31T00:06:47;100136.55;;;18.12;83.86
70916;BME280;58557;50.982;-3.222;2023-07-31T00:09:12;100131.54;;;17.47;85.62
70916;BME280;58557;50.982;-3.222;2023-07-31T00:11:38;100124.83;;;17.86;84.23
70916;BME280;58557;50.982;-3.222;2023-07-31T00:14:04;100129.87;;;17.43;86.42
70916;BME280;58557;50.982;-3.222;2023-07-31T00:16:29;100120.94;;;17.42;88.58
70916;BME280;58557;50.982;-3.222;2023-07-31T00:18:55;100115.73;;;17.65;87.29
70916;BME280;58557;50.982;-3.222;2023-07-31T00:21:21;100109.42;;;17.28;88.04
70916;BME280;58557;50.982;-3.222;2023-07-31T00:23:46;100104.29;;;18.14;85.48
70916;BME280;58557;50.982;-3.222;2023-07-31T00:26:12;100109.00;;;17.97;86.75
70916;BME280;58557;50.982;-3.222;2023-07-31T00:28:38;100113.06;;;17.80;86.58
70916;BME280;58557;50.982;-3.222;2023-07-31T00:31:03;100113.14;;;18.05;85.23
70916;BME280;58557;50.982;-3.222;2023-07-31T00:33:29;100111.01;;;18.11;85.22
70916;BME280;58557;50.982;-3.222;2023-07-31T00:35:54;100110.52;;;17.63;87.13
70916;BME280;58557;50.982;-3.222;2023-07-31T00:38:20;100101.32;;;18.19;85.08
70916;BME280;58557;50.982;-3.222;2023-07-31T00:40:45;100093.01;;;17.98;85.99
70916;BME280;58557;50.982;-3.222;2023-07-31T00:43:11;100089.13;;;18.15;85.61
70916;BME280;58557;50.982;-3.222;2023-07-31T00:45:37;100089.27;;;18.23;85.48
70916;BME280;58557;50.982;-3.222;2023-07-31T00:48:03;100094.34;;;17.45;87.89
70916;BME280;58557;50.982;-3.222;2023-07-31T00:50:28;100090.70;;;18.14;86.22
70916;BME280;58557;50.982;-3.222;2023-07-31T00:52:54;100083.57;;;17.76;87.69
70916;BME280;58557;50.982;-3.222;2023-07-31T00:55:19;100084.89;;;18.02;87.19
70916;BME280;58557;50.982;-3.222;2023-07-31T00:57:45;100075.88;;;18.45;85.54
70916;BME280;58557;50.982;-3.222;2023-07-31T01:00:11;100080.33;;;18.34;85.19
70916;BME280;58557;50.982;-3.222;2023-07-31T01:02:36;100084.77;;;18.00;85.64
70916;BME280;58557;50.982;-3.222;2023-07-31T01:05:03;100081.43;;;17.50;89.25
70916;BME280;58557;50.982;-3.222;2023-07-31T01:07:33;100083.04;;;18.04;88.97
70916;BME280;58557;50.982;-3.222;2023-07-31T01:09:59;100080.67;;;17.30;91.07
70916;BME280;58557;50.982;-3.222;2023-07-31T01:12:19;100073.42;;;17.29;91.88
70916;BME280;58557;50.982;-3.222;2023-07-31T01:14:51;100071.88;;;18.07;88.17
70916;BME280;58557;50.982;-3.222;2023-07-31T01:17:10;100070.06;;;18.15;87.38
70916;BME280;58557;50.982;-3.222;2023-07-31T01:19:36;100065.69;;;18.70;85.23
70916;BME280;58557;50.982;-3.222;2023-07-31T01:22:15;100063.21;;;18.23;87.18
70916;BME280;58557;50.982;-3.222;2023-07-31T01:24:31;100061.33;;;18.48;85.97
70916;BME280;58557;50.982;-3.222;2023-07-31T01:26:56;100061.95;;;18.96;84.71
70916;BME280;58557;50.982;-3.222;2023-07-31T01:29:25;100055.24;;;18.34;85.06
70916;BME280;58557;50.982;-3.222;2023-07-31T01:31:47;100062.69;;;18.25;88.37
70916;BME280;58557;50.982;-3.222;2023-07-31T01:34:10;100062.41;;;18.56;86.18
70916;BME280;58557;50.982;-3.222;2023-07-31T01:36:35;100061.95;;;18.59;84.67
70916;BME280;58557;50.982;-3.222;2023-07-31T01:39:01;100063.47;;;18.16;88.71
70916;BME280;58557;50.982;-3.222;2023-07-31T01:41:26;100065.88;;;17.96;90.25
70916;BME280;58557;50.982;-3.222;2023-07-31T01:43:52;100055.77;;;18.12;88.49
70916;BME280;58557;50.982;-3.222;2023-07-31T01:46:17;100054.11;;;18.45;87.33
70916;BME280;58557;50.982;-3.222;2023-07-31T01:48:43;100045.99;;;18.03;87.41
70916;BME280;58557;50.982;-3.222;2023-07-31T01:51:09;100046.31;;;18.56;86.85
70916;BME280;58557;50.982;-3.222;2023-07-31T01:53:34;100036.26;;;19.06;84.42
70916;BME280;58557;50.982;-3.222;2023-07-31T01:56:00;100034.47;;;19.07;84.46
70916;BME280;58557;50.982;-3.222;2023-07-31T01:58:25;100040.48;;;18.20;88.51
70916;BME280;58557;50.982;-3.222;2023-07-31T02:00:51;100043.75;;;17.35;91.25
70916;BME280;58557;50.982;-3.222;2023-07-31T02:03:17;100033.43;;;18.17;86.76
70916;BME280;58557;50.982;-3.222;2023-07-31T02:05:44;100039.38;;;18.52;86.44
70916;BME280;58557;50.982;-3.222;2023-07-31T02:08:08;100032.60;;;18.51;86.49
70916;BME280;58557;50.982;-3.222;2023-07-31T02:10:34;100031.17;;;18.17;89.69
70916;BME280;58557;50.982;-3.222;2023-07-31T02:12:59;100035.81;;;18.81;86.57
70916;BME280;58557;50.982;-3.222;2023-07-31T02:15:25;100032.03;;;19.01;84.21
70916;BME280;58557;50.982;-3.222;2023-07-31T02:17:50;100028.30;;;18.65;85.35
70916;BME280;58557;50.982;-3.222;2023-07-31T02:20:16;100024.31;;;18.44;87.59
70916;BME280;58557;50.982;-3.222;2023-07-31T02:22:41;100013.29;;;17.79;90.19
70916;BME280;58557;50.982;-3.222;2023-07-31T02:25:08;100012.05;;;18.06;90.83
70916;BME280;58557;50.982;-3.222;2023-07-31T02:27:33;100012.21;;;18.68;87.55
70916;BME280;58557;50.982;-3.222;2023-07-31T02:29:58;100015.29;;;16.54;95.79
70916;BME280;58557;50.982;-3.222;2023-07-31T02:32:24;100014.97;;;17.38;94.62
70916;BME280;58557;50.982;-3.222;2023-07-31T02:34:50;100010.13;;;17.03;96.40
70916;BME280;58557;50.982;-3.222;2023-07-31T02:37:15;100000.21;;;18.03;92.11
70916;BME280;58557;50.982;-3.222;2023-07-31T02:39:41;100000.12;;;17.74;92.47
70916;BME280;58557;50.982;-3.222;2023-07-31T02:42:06;99999.15;;;17.03;96.33
70916;BME280;58557;50.982;-3.222;2023-07-31T02:44:32;99992.65;;;17.46;92.87
70916;BME280;58557;50.982;-3.222;2023-07-31T02:46:58;100001.28;;;17.48;93.63
70916;BME280;58557;50.982;-3.222;2023-07-31T02:49:23;99990.50;;;17.73;92.53
70916;BME280;58557;50.982;-3.222;2023-07-31T02:51:49;99987.95;;;18.14;91.17
70916;BME280;58557;50.982;-3.222;2023-07-31T02:54:15;99976.95;;;18.37;89.17
70916;BME280;58557;50.982;-3.222;2023-07-31T02:56:40;99974.18;;;18.24;89.31
70916;BME280;58557;50.982;-3.222;2023-07-31T02:59:06;99968.51;;;18.41;86.11
70916;BME280;58557;50.982;-3.222;2023-07-31T03:01:31;99963.66;;;18.28;87.55
70916;BME280;58557;50.982;-3.222;2023-07-31T03:03:57;99960.40;;;17.97;88.36
70916;BME280;58557;50.982;-3.222;2023-07-31T03:06:22;99960.23;;;18.16;87.20
70916;BME280;58557;50.982;-3.222;2023-07-31T03:08:48;99957.45;;;18.49;87.76
70916;BME280;58557;50.982;-3.222;2023-07-31T03:11:13;99957.14;;;18.92;84.77
70916;BME280;58557;50.982;-3.222;2023-07-31T03:13:39;99960.23;;;19.05;82.92
70916;BME280;58557;50.982;-3.222;2023-07-31T03:16:05;99961.63;;;19.15;82.62
70916;BME280;58557;50.982;-3.222;2023-07-31T03:18:30;99962.50;;;18.77;83.97
70916;BME280;58557;50.982;-3.222;2023-07-31T03:20:56;99963.32;;;19.59;81.74
70916;BME280;58557;50.982;-3.222;2023-07-31T03:23:22;99970.50;;;18.56;84.99
70916;BME280;58557;50.982;-3.222;2023-07-31T03:25:56;99966.64;;;19.17;82.80
70916;BME280;58557;50.982;-3.222;2023-07-31T03:28:13;99969.16;;;19.76;79.00
70916;BME280;58557;50.982;-3.222;2023-07-31T03:30:39;99977.16;;;19.45;82.79
70916;BME280;58557;50.982;-3.222;2023-07-31T03:33:04;99977.67;;;17.94;86.13
70916;BME280;58557;50.982;-3.222;2023-07-31T03:35:30;99977.29;;;18.62;83.08
70916;BME280;58557;50.982;-3.222;2023-07-31T03:37:55;99974.55;;;18.45;85.52
70916;BME280;58557;50.982;-3.222;2023-07-31T03:40:21;99976.17;;;18.58;85.73
70916;BME280;58557;50.982;-3.222;2023-07-31T03:42:46;99969.59;;;17.83;86.59
70916;BME280;58557;50.982;-3.222;2023-07-31T03:45:12;99968.07;;;18.50;86.69
70916;BME280;58557;50.982;-3.222;2023-07-31T03:47:38;99965.55;;;18.62;85.38
70916;BME280;58557;50.982;-3.222;2023-07-31T03:50:04;99962.55;;;19.11;82.95
70916;BME280;58557;50.982;-3.222;2023-07-31T03:52:29;99961.10;;;18.12;85.20
70916;BME280;58557;50.982;-3.222;2023-07-31T03:54:54;99963.53;;;19.76;80.61
70916;BME280;58557;50.982;-3.222;2023-07-31T03:57:20;99968.97;;;18.91;82.55
70916;BME280;58557;50.982;-3.222;2023-07-31T03:59:46;99973.15;;;19.27;81.38
70916;BME280;58557;50.982;-3.222;2023-07-31T04:02:11;99975.68;;;18.69;82.80
70916;BME280;58557;50.982;-3.222;2023-07-31T04:04:37;99960.09;;;19.34;80.92
70916;BME280;58557;50.982;-3.222;2023-07-31T04:07:03;99955.06;;;19.03;80.69
70916;BME280;58557;50.982;-3.222;2023-07-31T04:09:28;99951.90;;;18.82;82.76
70916;BME280;58557;50.982;-3.222;2023-07-31T04:11:54;99952.48;;;20.22;78.60
70916;BME280;58557;50.982;-3.222;2023-07-31T04:14:19;99955.57;;;19.10;81.02
70916;BME280;58557;50.982;-3.222;2023-07-31T04:16:44;99956.09;;;18.46;84.23
70916;BME280;58557;50.982;-3.222;2023-07-31T04:19:10;99955.52;;;18.40;84.74
70916;BME280;58557;50.982;-3.222;2023-07-31T04:21:36;99953.90;;;19.26;81.93
70916;BME280;58557;50.982;-3.222;2023-07-31T04:24:01;99953.43;;;18.88;84.35
70916;BME280;58557;50.982;-3.222;2023-07-31T04:26:27;99953.10;;;19.78;78.85
70916;BME280;58557;50.982;-3.222;2023-07-31T04:28:53;99950.96;;;19.75;79.67
70916;BME280;58557;50.982;-3.222;2023-07-31T04:31:18;99954.54;;;19.69;78.64
70916;BME280;58557;50.982;-3.222;2023-07-31T04:33:44;99959.42;;;19.70;79.68
70916;BME280;58557;50.982;-3.222;2023-07-31T04:36:10;99959.26;;;20.20;77.70
70916;BME280;58557;50.982;-3.222;2023-07-31T04:38:35;99958.56;;;18.82;82.64
70916;BME280;58557;50.982;-3.222;2023-07-31T04:41:01;99952.61;;;19.52;80.98
70916;BME280;58557;50.982;-3.222;2023-07-31T04:43:26;99948.82;;;19.51;80.01
70916;BME280;58557;50.982;-3.222;2023-07-31T04:45:52;99953.31;;;19.76;79.87
70916;BME280;58557;50.982;-3.222;2023-07-31T04:48:17;99963.14;;;19.85;78.61
70916;BME280;58557;50.982;-3.222;2023-07-31T04:50:43;99965.08;;;19.48;80.44
70916;BME280;58557;50.982;-3.222;2023-07-31T04:53:08;99966.41;;;19.76;77.84
70916;BME280;58557;50.982;-3.222;2023-07-31T04:55:34;99965.49;;;20.02;77.22
70916;BME280;58557;50.982;-3.222;2023-07-31T04:58:00;99964.43;;;19.32;79.47
70916;BME280;58557;50.982;-3.222;2023-07-31T05:00:25;99958.18;;;19.05;81.46
70916;BME280;58557;50.982;-3.222;2023-07-31T05:02:51;99962.15;;;19.40;80.39
70916;BME280;58557;50.982;-3.222;2023-07-31T05:05:16;99958.71;;;19.77;79.19
70916;BME280;58557;50.982;-3.222;2023-07-31T05:07:42;99954.58;;;19.79;79.20
70916;BME280;58557;50.982;-3.222;2023-07-31T05:10:08;99961.76;;;18.77;83.43
70916;BME280;58557;50.982;-3.222;2023-07-31T05:12:33;99974.25;;;17.58;87.40
70916;BME280;58557;50.982;-3.222;2023-07-31T05:14:59;99971.87;;;18.24;87.82
70916;BME280;58557;50.982;-3.222;2023-07-31T05:17:25;99973.34;;;18.43;84.26
70916;BME280;58557;50.982;-3.222;2023-07-31T05:19:50;99966.56;;;17.75;86.70
70916;BME280;58557;50.982;-3.222;2023-07-31T05:22:16;99968.90;;;18.18;83.15
70916;BME280;58557;50.982;-3.222;2023-07-31T05:24:41;99968.10;;;18.84;79.13
70916;BME280;58557;50.982;-3.222;2023-07-31T05:27:07;99964.20;;;19.73;75.77
70916;BME280;58557;50.982;-3.222;2023-07-31T05:29:32;99965.48;;;18.67;77.53
70916;BME280;58557;50.982;-3.222;2023-07-31T05:31:58;99972.12;;;17.38;82.25
70916;BME280;58557;50.982;-3.222;2023-07-31T05:34:24;99975.14;;;17.14;85.16
70916;BME280;58557;50.982;-3.222;2023-07-31T05:36:49;99963.11;;;18.22;80.10
70916;BME280;58557;50.982;-3.222;2023-07-31T05:39:15;99963.62;;;17.96;80.50
70916;BME280;58557;50.982;-3.222;2023-07-31T05:41:41;99964.88;;;17.40;83.06
70916;BME280;58557;50.982;-3.222;2023-07-31T05:44:06;99971.74;;;17.20;82.23
70916;BME280;58557;50.982;-3.222;2023-07-31T05:46:32;99973.31;;;17.24;84.78
70916;BME280;58557;50.982;-3.222;2023-07-31T05:48:58;99964.10;;;17.56;80.61
70916;BME280;58557;50.982;-3.222;2023-07-31T05:51:23;99970.75;;;17.05;83.11
70916;BME280;58557;50.982;-3.222;2023-07-31T05:53:49;99966.78;;;18.11;78.80
70916;BME280;58557;50.982;-3.222;2023-07-31T05:56:14;99958.99;;;17.75;79.87
70916;BME280;58557;50.982;-3.222;2023-07-31T05:58:40;99965.07;;;17.94;81.39
70916;BME280;58557;50.982;-3.222;2023-07-31T06:01:05;99969.52;;;18.84;76.57
70916;BME280;58557;50.982;-3.222;2023-07-31T06:03:31;99968.90;;;18.47;77.59
70916;BME280;58557;50.982;-3.222;2023-07-31T06:05:57;99966.91;;;18.24;77.50
70916;BME280;58557;50.982;-3.222;2023-07-31T06:08:22;99961.56;;;18.92;75.92
70916;BME280;58557;50.982;-3.222;2023-07-31T06:10:48;99959.69;;;19.30;75.43
70916;BME280;58557;50.982;-3.222;2023-07-31T06:13:14;99961.26;;;18.51;76.23
70916;BME280;58557;50.982;-3.222;2023-07-31T06:15:39;99957.44;;;18.92;76.01
70916;BME280;58557;50.982;-3.222;2023-07-31T06:18:05;99951.21;;;18.57;79.07
70916;BME280;58557;50.982;-3.222;2023-07-31T06:20:31;99947.63;;;17.43;80.40
70916;BME280;58557;50.982;-3.222;2023-07-31T06:22:56;99946.10;;;19.03;75.95
70916;BME280;58557;50.982;-3.222;2023-07-31T06:25:22;99946.74;;;18.28;79.70
70916;BME280;58557;50.982;-3.222;2023-07-31T06:27:47;99944.95;;;19.36;75.55
70916;BME280;58557;50.982;-3.222;2023-07-31T06:30:13;99945.71;;;18.36;79.66
70916;BME280;58557;50.982;-3.222;2023-07-31T06:32:38;99935.36;;;19.13;73.79
70916;BME280;58557;50.982;-3.222;2023-07-31T06:35:05;99936.94;;;19.18;74.94
70916;BME280;58557;50.982;-3.222;2023-07-31T06:37:29;99938.33;;;19.04;74.40
70916;BME280;58557;50.982;-3.222;2023-07-31T06:39:55;99934.45;;;19.62;72.25
70916;BME280;58557;50.982;-3.222;2023-07-31T06:42:21;99934.17;;;18.77;73.51
70916;BME280;58557;50.982;-3.222;2023-07-31T06:44:46;99925.65;;;19.15;72.83
70916;BME280;58557;50.982;-3.222;2023-07-31T06:47:12;99918.83;;;19.43;73.60
70916;BME280;58557;50.982;-3.222;2023-07-31T06:49:37;99922.13;;;19.92;69.90
70916;BME280;58557;50.982;-3.222;2023-07-31T06:52:03;99911.82;;;19.82;70.40
70916;BME280;58557;50.982;-3.222;2023-07-31T06:54:29;99918.37;;;20.79;67.54
70916;BME280;58557;50.982;-3.222;2023-07-31T06:56:54;99922.03;;;20.22;65.60
70916;BME280;58557;50.982;-3.222;2023-07-31T06:59:20;99921.52;;;19.63;70.01
70916;BME280;58557;50.982;-3.222;2023-07-31T07:01:46;99924.14;;;20.26;66.51
70916;BME280;58557;50.982;-3.222;2023-07-31T07:04:11;99922.02;;;21.07;64.56
70916;BME280;58557;50.982;-3.222;2023-07-31T07:06:37;99925.66;;;20.35;65.36
70916;BME280;58557;50.982;-3.222;2023-07-31T07:09:02;99923.20;;;20.49;65.47
70916;BME280;58557;50.982;-3.222;2023-07-31T07:11:28;99926.33;;;21.05;63.16
70916;BME280;58557;50.982;-3.222;2023-07-31T07:13:53;99935.74;;;19.90;67.71
70916;BME280;58557;50.982;-3.222;2023-07-31T07:16:19;99929.91;;;19.97;66.25
70916;BME280;58557;50.982;-3.222;2023-07-31T07:18:44;99936.42;;;20.05;64.70
70916;BME280;58557;50.982;-3.222;2023-07-31T07:21:10;99939.33;;;21.11;62.59
70916;BME280;58557;50.982;-3.222;2023-07-31T07:23:35;99942.84;;;21.52;62.47
70916;BME280;58557;50.982;-3.222;2023-07-31T07:26:01;99939.76;;;20.59;62.80
70916;BME280;58557;50.982;-3.222;2023-07-31T07:28:26;99938.53;;;20.74;64.41
70916;BME280;58557;50.982;-3.222;2023-07-31T07:30:52;99928.99;;;20.01;65.83
70916;BME280;58557;50.982;-3.222;2023-07-31T07:33:17;99928.17;;;20.16;64.85
70916;BME280;58557;50.982;-3.222;2023-07-31T07:35:43;99925.05;;;19.94;68.48
70916;BME280;58557;50.982;-3.222;2023-07-31T07:38:09;99919.91;;;19.76;68.37
70916;BME280;58557;50.982;-3.222;2023-07-31T07:40:38;99921.19;;;19.20;70.85
70916;BME280;58557;50.982;-3.222;2023-07-31T07:42:59;99920.43;;;19.12;70.55
70916;BME280;58557;50.982;-3.222;2023-07-31T07:45:25;99920.51;;;17.59;75.05
70916;BME280;58557;50.982;-3.222;2023-07-31T07:47:51;99922.34;;;18.72;72.90
70916;BME280;58557;50.982;-3.222;2023-07-31T07:50:16;99925.39;;;18.98;72.09
70916;BME280;58557;50.982;-3.222;2023-07-31T07:52:42;99926.77;;;18.47;74.60
70916;BME280;58557;50.982;-3.222;2023-07-31T07:55:08;99923.89;;;19.23;70.06
70916;BME280;58557;50.982;-3.222;2023-07-31T07:57:33;99921.66;;;19.25;70.71
70916;BME280;58557;50.982;-3.222;2023-07-31T07:59:58;99904.13;;;19.87;68.06
70916;BME280;58557;50.982;-3.222;2023-07-31T08:02:24;99909.89;;;20.24;68.53
70916;BME280;58557;50.982;-3.222;2023-07-31T08:04:50;99902.88;;;19.75;68.96
70916;BME280;58557;50.982;-3.222;2023-07-31T08:07:15;99909.43;;;19.98;68.77
70916;BME280;58557;50.982;-3.222;2023-07-31T08:09:40;99897.99;;;19.74;68.72
70916;BME280;58557;50.982;-3.222;2023-07-31T08:12:07;99899.43;;;19.34;68.89
70916;BME280;58557;50.982;-3.222;2023-07-31T08:14:32;99918.24;;;20.00;68.47
70916;BME280;58557;50.982;-3.222;2023-07-31T08:16:57;99922.58;;;19.59;69.40
70916;BME280;58557;50.982;-3.222;2023-07-31T08:19:23;99923.33;;;18.64;73.63
70916;BME280;58557;50.982;-3.222;2023-07-31T08:21:49;99924.89;;;18.23;74.66
70916;BME280;58557;50.982;-3.222;2023-07-31T08:24:14;99924.51;;;19.07;71.07
70916;BME280;58557;50.982;-3.222;2023-07-31T08:26:39;99933.15;;;19.03;71.30
70916;BME280;58557;50.982;-3.222;2023-07-31T08:29:05;99920.78;;;19.36;70.22
70916;BME280;58557;50.982;-3.222;2023-07-31T08:31:30;99906.81;;;19.65;70.11
70916;BME280;58557;50.982;-3.222;2023-07-31T08:33:56;99914.20;;;18.79;70.74
70916;BME280;58557;50.982;-3.222;2023-07-31T08:36:22;99919.90;;;19.97;67.61
70916;BME280;58557;50.982;-3.222;2023-07-31T08:38:47;99926.12;;;19.98;67.40
70916;BME280;58557;50.982;-3.222;2023-07-31T08:41:13;99932.87;;;19.81;66.87
70916;BME280;58557;50.982;-3.222;2023-07-31T08:43:39;99933.93;;;19.84;67.56
70916;BME280;58557;50.982;-3.222;2023-07-31T08:46:05;99922.08;;;19.34;66.96
70916;BME280;58557;50.982;-3.222;2023-07-31T08:48:30;99908.07;;;20.25;66.82
70916;BME280;58557;50.982;-3.222;2023-07-31T08:50:55;99910.97;;;20.35;64.81
70916;BME280;58557;50.982;-3.222;2023-07-31T08:53:20;99913.11;;;19.91;64.58
70916;BME280;58557;50.982;-3.222;2023-07-31T08:55:46;99914.90;;;19.81;64.77
70916;BME280;58557;50.982;-3.222;2023-07-31T08:58:12;99897.53;;;19.08;65.34
70916;BME280;58557;50.982;-3.222;2023-07-31T09:00:36;99887.84;;;19.25;67.12
70916;BME280;58557;50.982;-3.222;2023-07-31T09:03:03;99897.94;;;18.09;75.31
70916;BME280;58557;50.982;-3.222;2023-07-31T09:05:30;99905.93;;;18.82;69.07
70916;BME280;58557;50.982;-3.222;2023-07-31T09:07:56;99901.11;;;19.55;67.03
70916;BME280;58557;50.982;-3.222;2023-07-31T09:10:19;99903.62;;;20.24;65.15
70916;BME280;58557;50.982;-3.222;2023-07-31T09:12:46;99904.29;;;21.09;63.13
70916;BME280;58557;50.982;-3.222;2023-07-31T09:15:11;99899.46;;;19.62;66.07
70916;BME280;58557;50.982;-3.222;2023-07-31T09:17:37;99897.19;;;20.80;62.70
70916;BME280;58557;50.982;-3.222;2023-07-31T09:22:32;99882.72;;;20.16;64.83
70916;BME280;58557;50.982;-3.222;2023-07-31T09:24:52;99855.97;;;20.88;59.95
70916;BME280;58557;50.982;-3.222;2023-07-31T09:27:18;99866.29;;;20.80;61.13
70916;BME280;58557;50.982;-3.222;2023-07-31T09:29:43;99885.28;;;20.86;60.16
70916;BME280;58557;50.982;-3.222;2023-07-31T09:32:16;99875.27;;;19.31;63.74
70916;BME280;58557;50.982;-3.222;2023-07-31T09:34:37;99885.65;;;18.61;66.35
70916;BME280;58557;50.982;-3.222;2023-07-31T09:37:01;99892.12;;;18.47;66.39
70916;BME280;58557;50.982;-3.222;2023-07-31T09:39:25;99901.27;;;18.25;65.93
70916;BME280;58557;50.982;-3.222;2023-07-31T09:41:54;99921.32;;;20.18;63.18
70916;BME280;58557;50.982;-3.222;2023-07-31T09:44:16;99948.30;;;19.05;65.01
70916;BME280;58557;50.982;-3.222;2023-07-31T09:46:41;99946.95;;;18.36;66.23
70916;BME280;58557;50.982;-3.222;2023-07-31T09:49:08;99935.31;;;18.58;65.20
70916;BME280;58557;50.982;-3.222;2023-07-31T09:51:33;99930.22;;;19.40;64.60
70916;BME280;58557;50.982;-3.222;2023-07-31T09:53:58;99935.89;;;19.43;63.26
70916;BME280;58557;50.982;-3.222;2023-07-31T09:56:25;99947.91;;;18.50;65.09
70916;BME280;58557;50.982;-3.222;2023-07-31T09:58:50;99954.79;;;18.94;65.01
70916;BME280;58557;50.982;-3.222;2023-07-31T10:01:15;99964.95;;;18.78;65.59
70916;BME280;58557;50.982;-3.222;2023-07-31T10:03:42;99968.02;;;19.17;65.55
70916;BME280;58557;50.982;-3.222;2023-07-31T10:06:07;99965.11;;;20.03;61.83
70916;BME280;58557;50.982;-3.222;2023-07-31T10:08:35;99970.77;;;18.45;66.41
70916;BME280;58557;50.982;-3.222;2023-07-31T10:10:59;99969.61;;;18.90;65.61
70916;BME280;58557;50.982;-3.222;2023-07-31T10:13:23;99961.28;;;18.90;65.11
70916;BME280;58557;50.982;-3.222;2023-07-31T10:15:48;99950.24;;;18.26;67.58
70916;BME280;58557;50.982;-3.222;2023-07-31T10:18:14;99942.25;;;18.18;64.59
70916;BME280;58557;50.982;-3.222;2023-07-31T10:20:39;99938.61;;;18.24;64.73
70916;BME280;58557;50.982;-3.222;2023-07-31T10:23:04;99946.66;;;18.00;66.66
70916;BME280;58557;50.982;-3.222;2023-07-31T10:25:30;99933.60;;;19.13;62.57
70916;BME280;58557;50.982;-3.222;2023-07-31T10:27:56;99923.62;;;19.19;60.60
70916;BME280;58557;50.982;-3.222;2023-07-31T10:30:24;99926.48;;;17.92;64.01
70916;BME280;58557;50.982;-3.222;2023-07-31T10:32:47;99945.71;;;17.85;64.74
70916;BME280;58557;50.982;-3.222;2023-07-31T10:35:12;99952.02;;;19.32;61.74
70916;BME280;58557;50.982;-3.222;2023-07-31T10:37:40;99954.39;;;19.59;61.90
70916;BME280;58557;50.982;-3.222;2023-07-31T10:40:05;99965.59;;;19.29;61.57
70916;BME280;58557;50.982;-3.222;2023-07-31T10:42:31;99980.52;;;18.36;64.75
70916;BME280;58557;50.982;-3.222;2023-07-31T10:44:57;99965.87;;;17.67;72.00
70916;BME280;58557;50.982;-3.222;2023-07-31T10:47:19;99962.91;;;19.51;63.42
70916;BME280;58557;50.982;-3.222;2023-07-31T10:49:45;99973.96;;;18.93;65.46
70916;BME280;58557;50.982;-3.222;2023-07-31T10:52:12;99987.16;;;19.93;61.24
70916;BME280;58557;50.982;-3.222;2023-07-31T10:54:35;99973.89;;;18.08;67.40
70916;BME280;58557;50.982;-3.222;2023-07-31T10:57:00;99949.19;;;19.78;63.52
70916;BME280;58557;50.982;-3.222;2023-07-31T10:59:26;99951.30;;;18.27;67.75
70916;BME280;58557;50.982;-3.222;2023-07-31T11:01:51;99938.16;;;19.20;64.72
70916;BME280;58557;50.982;-3.222;2023-07-31T11:04:22;99917.61;;;18.97;65.32
70916;BME280;58557;50.982;-3.222;2023-07-31T11:09:13;99887.77;;;19.07;64.53
70916;BME280;58557;50.982;-3.222;2023-07-31T11:11:33;99880.52;;;18.11;66.77
70916;BME280;58557;50.982;-3.222;2023-07-31T11:13:57;99898.78;;;19.64;63.58
70916;BME280;58557;50.982;-3.222;2023-07-31T11:16:24;99908.34;;;19.43;66.01
70916;BME280;58557;50.982;-3.222;2023-07-31T11:18:48;99904.82;;;18.86;65.34
70916;BME280;58557;50.982;-3.222;2023-07-31T11:21:14;99900.71;;;18.85;64.46
70916;BME280;58557;50.982;-3.222;2023-07-31T11:23:38;99886.86;;;19.40;64.22
70916;BME280;58557;50.982;-3.222;2023-07-31T11:26:05;99860.06;;;19.49;62.61
70916;BME280;58557;50.982;-3.222;2023-07-31T11:28:32;99853.20;;;19.03;63.09
70916;BME280;58557;50.982;-3.222;2023-07-31T11:30:56;99886.89;;;17.49;69.56
70916;BME280;58557;50.982;-3.222;2023-07-31T11:33:19;99905.47;;;19.55;65.65
70916;BME280;58557;50.982;-3.222;2023-07-31T11:35:46;99891.55;;;19.37;66.23
70916;BME280;58557;50.982;-3.222;2023-07-31T11:38:11;99874.39;;;19.44;65.88
70916;BME280;58557;50.982;-3.222;2023-07-31T11:40:41;99877.34;;;17.84;69.07
70916;BME280;58557;50.982;-3.222;2023-07-31T11:43:04;99874.14;;;19.27;67.64
70916;BME280;58557;50.982;-3.222;2023-07-31T11:45:27;99893.14;;;19.53;66.47
70916;BME280;58557;50.982;-3.222;2023-07-31T11:47:52;99902.68;;;20.38;63.85
70916;BME280;58557;50.982;-3.222;2023-07-31T11:50:18;99883.91;;;20.31;63.44
70916;BME280;58557;50.982;-3.222;2023-07-31T11:52:44;99863.87;;;19.11;65.59
70916;BME280;58557;50.982;-3.222;2023-07-31T11:55:08;99868.71;;;20.32;63.37
70916;BME280;58557;50.982;-3.222;2023-07-31T11:57:33;99865.31;;;20.50;62.84
70916;BME280;58557;50.982;-3.222;2023-07-31T11:59:59;99869.43;;;19.94;63.73
70916;BME280;58557;50.982;-3.222;2023-07-31T12:02:24;99871.88;;;19.52;64.54
70916;BME280;58557;50.982;-3.222;2023-07-31T12:04:50;99877.30;;;19.92;65.10
70916;BME280;58557;50.982;-3.222;2023-07-31T12:07:20;99875.34;;;19.69;65.86
70916;BME280;58557;50.982;-3.222;2023-07-31T12:09:52;99869.79;;;18.00;72.37
70916;BME280;58557;50.982;-3.222;2023-07-31T12:12:08;99841.60;;;18.98;68.61
70916;BME280;58557;50.982;-3.222;2023-07-31T12:14:32;99865.77;;;18.57;69.90
70916;BME280;58557;50.982;-3.222;2023-07-31T12:16:58;99918.51;;;19.28;68.88
70916;BME280;58557;50.982;-3.222;2023-07-31T12:19:21;99931.73;;;17.74;70.96
70916;BME280;58557;50.982;-3.222;2023-07-31T12:21:47;99934.02;;;18.10;74.37
70916;BME280;58557;50.982;-3.222;2023-07-31T12:24:12;99924.51;;;19.11;70.20
70916;BME280;58557;50.982;-3.222;2023-07-31T12:26:38;99907.27;;;19.45;67.38
70916;BME280;58557;50.982;-3.222;2023-07-31T12:29:07;99932.16;;;17.43;76.17
70916;BME280;58557;50.982;-3.222;2023-07-31T12:31:28;99887.19;;;17.61;76.42
70916;BME280;58557;50.982;-3.222;2023-07-31T12:33:55;99859.23;;;18.97;71.83
70916;BME280;58557;50.982;-3.222;2023-07-31T12:36:21;99841.23;;;18.79;71.01
70916;BME280;58557;50.982;-3.222;2023-07-31T12:38:45;99817.38;;;19.00;71.62
70916;BME280;58557;50.982;-3.222;2023-07-31T12:41:10;99798.17;;;18.81;70.76
70916;BME280;58557;50.982;-3.222;2023-07-31T12:43:37;99774.63;;;19.39;68.35